sensor_id;sensor_type;location;lat;lon;timestamp;temperature;humidity
24744;DHT22;12844;52.110;5.548;2023-05-10T05:46:50;20.50;56.50
24744;DHT22;12844;52.110;5.548;2023-05-10T05:49:16;20.40;56.50
24744;DHT22;12844;52.110;5.548;2023-05-10T05:51:41;20.50;56.50
24744;DHT22;12844;52.110;5.548;2023-05-10T05:54:07;20.50;56.50
24744;DHT22;12844;52.110;5.548;2023-05-10T05:56:33;20.40;56.40
24744;DHT22;12844;52.110;5.548;2023-05-10T05:58:58;20.40;56.40
24744;DHT22;12844;52.110;5.548;2023-05-10T06:01:24;20.40;56.40
24744;DHT22;12844;52.110;5.548;2023-05-10T06:03:49;20.40;56.50
24744;DHT22;12844;52.110;5.548;2023-05-10T06:06:15;20.40;56.40
24744;DHT22;12844;52.110;5.548;2023-05-10T06:08:40;20.40;56.40
24744;DHT22;12844;52.110;5.548;2023-05-10T06:11:06;20.40;56.50
24744;DHT22;12844;52.110;5.548;2023-05-10T06:13:31;20.40;56.50
24744;DHT22;12844;52.110;5.548;2023-05-10T06:15:58;20.40;56.50
24744;DHT22;12844;52.110;5.548;2023-05-10T06:18:24;20.40;56.40
24744;DHT22;12844;52.110;5.548;2023-05-10T06:20:50;20.40;56.40
24744;DHT22;12844;52.110;5.548;2023-05-10T06:23:16;20.40;56.50
24744;DHT22;12844;52.110;5.548;2023-05-10T06:25:42;20.40;56.50
24744;DHT22;12844;52.110;5.548;2023-05-10T06:28:07;20.40;56.50
24744;DHT22;12844;52.110;5.548;2023-05-10T06:30:33;20.40;56.50
24744;DHT22;12844;52.110;5.548;2023-05-10T06:32:59;20.40;56.50
24744;DHT22;12844;52.110;5.548;2023-05-10T06:35:24;20.40;56.50
24744;DHT22;12844;52.110;5.548;2023-05-10T06:37:50;20.40;56.50
24744;DHT22;12844;52.110;5.548;2023-05-10T06:40:16;20.40;56.60
24744;DHT22;12844;52.110;5.548;2023-05-10T06:42:42;20.40;56.60
24744;DHT22;12844;52.110;5.548;2023-05-10T06:45:08;20.40;56.50
24744;DHT22;12844;52.110;5.548;2023-05-10T06:47:34;20.40;56.60
24744;DHT22;12844;52.110;5.548;2023-05-10T06:49:59;20.40;56.60
24744;DHT22;12844;52.110;5.548;2023-05-10T06:52:25;20.40;56.60
24744;DHT22;12844;52.110;5.548;2023-05-10T06:54:51;20.40;56.50
24744;DHT22;12844;52.110;5.548;2023-05-10T06:57:17;20.40;56.50
24744;DHT22;12844;52.110;5.548;2023-05-10T06:59:43;20.40;56.50
24744;DHT22;12844;52.110;5.548;2023-05-10T07:02:08;20.40;56.50
24744;DHT22;12844;52.110;5.548;2023-05-10T07:04:34;20.40;56.50
24744;DHT22;12844;52.110;5.548;2023-05-10T07:06:59;20.40;56.50
24744;DHT22;12844;52.110;5.548;2023-05-10T07:09:25;20.40;56.60
24744;DHT22;12844;52.110;5.548;2023-05-10T07:11:50;20.40;56.60
24744;DHT22;12844;52.110;5.548;2023-05-10T07:14:16;20.40;56.60
24744;DHT22;12844;52.110;5.548;2023-05-10T07:16:41;20.40;56.60
24744;DHT22;12844;52.110;5.548;2023-05-10T07:19:07;20.40;56.60
24744;DHT22;12844;52.110;5.548;2023-05-10T07:21:32;20.40;56.60
24744;DHT22;12844;52.110;5.548;2023-05-10T07:23:58;20.40;56.60
24744;DHT22;12844;52.110;5.548;2023-05-10T07:26:24;20.40;56.60
24744;DHT22;12844;52.110;5.548;2023-05-10T07:28:50;20.40;56.60
24744;DHT22;12844;52.110;5.548;2023-05-10T07:31:16;20.40;56.60
24744;DHT22;12844;52.110;5.548;2023-05-10T07:33:41;20.40;56.60
24744;DHT22;12844;52.110;5.548;2023-05-10T07:36:07;20.40;56.60
24744;DHT22;12844;52.110;5.548;2023-05-10T07:38:32;20.40;56.60
24744;DHT22;12844;52.110;5.548;2023-05-10T07:40:58;20.40;56.60
24744;DHT22;12844;52.110;5.548;2023-05-10T07:43:23;20.40;56.60
24744;DHT22;12844;52.110;5.548;2023-05-10T07:45:49;20.40;57.20
24744;DHT22;12844;52.110;5.548;2023-05-10T07:48:14;20.40;56.60
24744;DHT22;12844;52.110;5.548;2023-05-10T07:50:40;20.40;56.60
24744;DHT22;12844;52.110;5.548;2023-05-10T07:53:05;20.40;56.60
24744;DHT22;12844;52.110;5.548;2023-05-10T07:55:31;20.40;56.60
24744;DHT22;12844;52.110;5.548;2023-05-10T07:57:57;20.40;56.60
24744;DHT22;12844;52.110;5.548;2023-05-10T08:00:22;20.40;56.60
24744;DHT22;12844;52.110;5.548;2023-05-10T08:02:48;20.40;56.60
24744;DHT22;12844;52.110;5.548;2023-05-10T08:05:14;20.40;56.60
24744;DHT22;12844;52.110;5.548;2023-05-10T08:07:39;20.40;56.60
24744;DHT22;12844;52.110;5.548;2023-05-10T08:10:05;20.40;56.60
24744;DHT22;12844;52.110;5.548;2023-05-10T08:12:31;20.40;56.60
24744;DHT22;12844;52.110;5.548;2023-05-10T08:14:57;20.40;56.60
24744;DHT22;12844;52.110;5.548;2023-05-10T08:17:23;20.40;56.60
24744;DHT22;12844;52.110;5.548;2023-05-10T08:19:48;20.40;56.60
24744;DHT22;12844;52.110;5.548;2023-05-10T08:22:14;20.40;56.60
24744;DHT22;12844;52.110;5.548;2023-05-10T08:24:39;20.40;56.60
24744;DHT22;12844;52.110;5.548;2023-05-10T08:27:07;20.50;56.60
24744;DHT22;12844;52.110;5.548;2023-05-10T08:29:33;20.40;56.60
24744;DHT22;12844;52.110;5.548;2023-05-10T08:31:59;20.50;56.70
24744;DHT22;12844;52.110;5.548;2023-05-10T08:34:26;20.50;56.60
24744;DHT22;12844;52.110;5.548;2023-05-10T08:36:52;20.50;56.50
24744;DHT22;12844;52.110;5.548;2023-05-10T08:39:17;20.50;56.50
24744;DHT22;12844;52.110;5.548;2023-05-10T08:41:44;20.50;56.50
24744;DHT22;12844;52.110;5.548;2023-05-10T08:44:12;20.50;56.60
24744;DHT22;12844;52.110;5.548;2023-05-10T08:46:39;20.50;56.60
24744;DHT22;12844;52.110;5.548;2023-05-10T08:49:09;20.50;56.60
24744;DHT22;12844;52.110;5.548;2023-05-10T08:51:40;20.50;56.60
24744;DHT22;12844;52.110;5.548;2023-05-10T08:54:09;20.50;56.60
24744;DHT22;12844;52.110;5.548;2023-05-10T08:56:35;20.50;56.60
24744;DHT22;12844;52.110;5.548;2023-05-10T08:59:01;20.50;56.60
24744;DHT22;12844;52.110;5.548;2023-05-10T09:01:27;20.40;56.60
24744;DHT22;12844;52.110;5.548;2023-05-10T09:03:54;20.50;56.60
24744;DHT22;12844;52.110;5.548;2023-05-10T09:06:20;20.50;56.70
24744;DHT22;12844;52.110;5.548;2023-05-10T09:08:46;20.40;56.60
24744;DHT22;12844;52.110;5.548;2023-05-10T09:11:12;20.40;56.60
24744;DHT22;12844;52.110;5.548;2023-05-10T09:13:38;20.40;56.60
24744;DHT22;12844;52.110;5.548;2023-05-10T09:16:04;20.50;56.60
24744;DHT22;12844;52.110;5.548;2023-05-10T09:18:30;20.50;56.60
24744;DHT22;12844;52.110;5.548;2023-05-10T09:20:56;20.40;56.60
24744;DHT22;12844;52.110;5.548;2023-05-10T09:23:21;20.40;56.60
24744;DHT22;12844;52.110;5.548;2023-05-10T09:25:47;20.40;56.60
24744;DHT22;12844;52.110;5.548;2023-05-10T09:28:13;20.40;56.60
24744;DHT22;12844;52.110;5.548;2023-05-10T09:30:38;20.50;56.60
24744;DHT22;12844;52.110;5.548;2023-05-10T09:33:04;20.50;56.60
24744;DHT22;12844;52.110;5.548;2023-05-10T09:35:31;20.50;56.50
24744;DHT22;12844;52.110;5.548;2023-05-10T09:38:04;20.50;56.40
24744;DHT22;12844;52.110;5.548;2023-05-10T09:40:30;20.60;56.30
24744;DHT22;12844;52.110;5.548;2023-05-10T09:42:58;20.60;56.20
24744;DHT22;12844;52.110;5.548;2023-05-10T09:45:26;20.60;56.20
24744;DHT22;12844;52.110;5.548;2023-05-10T09:47:52;20.60;56.20
24744;DHT22;12844;52.110;5.548;2023-05-10T09:50:19;20.60;56.20
24744;DHT22;12844;52.110;5.548;2023-05-10T09:55:20;20.60;56.20
24744;DHT22;12844;52.110;5.548;2023-05-10T09:57:47;20.60;56.10
24744;DHT22;12844;52.110;5.548;2023-05-10T10:00:18;20.70;56.20
24744;DHT22;12844;52.110;5.548;2023-05-10T10:02:53;20.70;56.20
24744;DHT22;12844;52.110;5.548;2023-05-10T10:05:19;20.70;56.10
24744;DHT22;12844;52.110;5.548;2023-05-10T10:07:45;20.80;56.00
24744;DHT22;12844;52.110;5.548;2023-05-10T10:10:10;20.80;56.00
24744;DHT22;12844;52.110;5.548;2023-05-10T10:12:38;20.80;56.00
24744;DHT22;12844;52.110;5.548;2023-05-10T10:15:05;20.80;55.90
24744;DHT22;12844;52.110;5.548;2023-05-10T10:17:32;20.80;55.90
24744;DHT22;12844;52.110;5.548;2023-05-10T10:20:02;20.80;55.90
24744;DHT22;12844;52.110;5.548;2023-05-10T10:22:28;20.80;55.90
24744;DHT22;12844;52.110;5.548;2023-05-10T10:24:54;20.80;56.00
24744;DHT22;12844;52.110;5.548;2023-05-10T10:30:43;20.80;55.90
24744;DHT22;12844;52.110;5.548;2023-05-10T10:33:40;20.70;56.00
24744;DHT22;12844;52.110;5.548;2023-05-10T10:36:13;20.70;56.20
24744;DHT22;12844;52.110;5.548;2023-05-10T10:41:33;20.60;56.20
24744;DHT22;12844;52.110;5.548;2023-05-10T10:47:21;20.60;56.30
24744;DHT22;12844;52.110;5.548;2023-05-10T10:50:03;20.60;56.40
24744;DHT22;12844;52.110;5.548;2023-05-10T10:52:42;20.60;56.40
24744;DHT22;12844;52.110;5.548;2023-05-10T10:55:17;20.60;56.40
24744;DHT22;12844;52.110;5.548;2023-05-10T11:00:24;20.60;56.30
24744;DHT22;12844;52.110;5.548;2023-05-10T11:08:00;20.70;56.20
24744;DHT22;12844;52.110;5.548;2023-05-10T11:10:26;20.70;56.20
24744;DHT22;12844;52.110;5.548;2023-05-10T11:13:02;20.70;56.20
24744;DHT22;12844;52.110;5.548;2023-05-10T11:15:33;20.70;56.10
24744;DHT22;12844;52.110;5.548;2023-05-10T11:17:59;20.70;56.20
24744;DHT22;12844;52.110;5.548;2023-05-10T11:20:27;20.70;56.20
24744;DHT22;12844;52.110;5.548;2023-05-10T11:23:11;20.70;56.20
24744;DHT22;12844;52.110;5.548;2023-05-10T11:25:42;20.70;56.20
24744;DHT22;12844;52.110;5.548;2023-05-10T11:28:08;20.70;56.20
24744;DHT22;12844;52.110;5.548;2023-05-10T11:30:34;20.80;56.20
24744;DHT22;12844;52.110;5.548;2023-05-10T11:33:00;20.80;56.10
24744;DHT22;12844;52.110;5.548;2023-05-10T11:35:27;20.80;56.00
24744;DHT22;12844;52.110;5.548;2023-05-10T11:37:53;20.80;56.10
24744;DHT22;12844;52.110;5.548;2023-05-10T11:40:18;20.80;56.00
24744;DHT22;12844;52.110;5.548;2023-05-10T11:42:44;20.80;56.60
24744;DHT22;12844;52.110;5.548;2023-05-10T11:45:10;20.80;56.00
24744;DHT22;12844;52.110;5.548;2023-05-10T11:47:36;20.80;56.00
24744;DHT22;12844;52.110;5.548;2023-05-10T11:50:02;20.80;56.00
24744;DHT22;12844;52.110;5.548;2023-05-10T11:52:28;20.80;56.00
24744;DHT22;12844;52.110;5.548;2023-05-10T11:54:54;20.80;56.00
24744;DHT22;12844;52.110;5.548;2023-05-10T11:57:25;20.80;56.00
24744;DHT22;12844;52.110;5.548;2023-05-10T12:02:24;20.80;56.00
24744;DHT22;12844;52.110;5.548;2023-05-10T12:04:50;20.80;56.00
24744;DHT22;12844;52.110;5.548;2023-05-10T12:07:16;20.80;56.00
24744;DHT22;12844;52.110;5.548;2023-05-10T12:09:43;20.80;55.90
24744;DHT22;12844;52.110;5.548;2023-05-10T12:12:10;20.80;55.90
24744;DHT22;12844;52.110;5.548;2023-05-10T12:14:40;20.90;55.90
24744;DHT22;12844;52.110;5.548;2023-05-10T12:17:06;20.90;55.90
24744;DHT22;12844;52.110;5.548;2023-05-10T12:19:38;20.90;55.80
24744;DHT22;12844;52.110;5.548;2023-05-10T12:22:04;21.00;55.80
24744;DHT22;12844;52.110;5.548;2023-05-10T12:24:30;20.90;55.70
24744;DHT22;12844;52.110;5.548;2023-05-10T12:26:56;20.90;55.90
24744;DHT22;12844;52.110;5.548;2023-05-10T12:29:21;20.90;55.90
24744;DHT22;12844;52.110;5.548;2023-05-10T12:31:52;20.90;55.90
24744;DHT22;12844;52.110;5.548;2023-05-10T12:34:33;20.90;55.80
24744;DHT22;12844;52.110;5.548;2023-05-10T12:36:59;21.00;55.80
24744;DHT22;12844;52.110;5.548;2023-05-10T12:39:25;21.00;55.80
24744;DHT22;12844;52.110;5.548;2023-05-10T12:41:51;21.00;55.90
24744;DHT22;12844;52.110;5.548;2023-05-10T12:44:17;21.00;55.80
24744;DHT22;12844;52.110;5.548;2023-05-10T12:46:43;21.00;55.80
24744;DHT22;12844;52.110;5.548;2023-05-10T12:49:09;21.00;55.80
24744;DHT22;12844;52.110;5.548;2023-05-10T12:51:34;21.00;55.80
24744;DHT22;12844;52.110;5.548;2023-05-10T12:54:00;21.00;55.80
24744;DHT22;12844;52.110;5.548;2023-05-10T12:56:26;21.00;55.80
24744;DHT22;12844;52.110;5.548;2023-05-10T12:58:51;21.00;55.80
24744;DHT22;12844;52.110;5.548;2023-05-10T13:01:17;21.00;55.80
24744;DHT22;12844;52.110;5.548;2023-05-10T13:03:42;21.10;55.80
24744;DHT22;12844;52.110;5.548;2023-05-10T13:06:11;21.00;55.70
24744;DHT22;12844;52.110;5.548;2023-05-10T13:08:38;21.10;55.80
24744;DHT22;12844;52.110;5.548;2023-05-10T13:11:05;21.10;55.80
24744;DHT22;12844;52.110;5.548;2023-05-10T13:13:31;21.00;55.80
24744;DHT22;12844;52.110;5.548;2023-05-10T13:15:56;21.00;55.80
24744;DHT22;12844;52.110;5.548;2023-05-10T13:18:22;21.00;55.80
24744;DHT22;12844;52.110;5.548;2023-05-10T13:20:47;21.00;55.80
24744;DHT22;12844;52.110;5.548;2023-05-10T13:23:14;21.00;55.90
24744;DHT22;12844;52.110;5.548;2023-05-10T13:25:40;21.00;56.50
24744;DHT22;12844;52.110;5.548;2023-05-10T13:28:05;21.00;55.90
24744;DHT22;12844;52.110;5.548;2023-05-10T13:30:31;21.00;56.10
24744;DHT22;12844;52.110;5.548;2023-05-10T13:32:56;20.90;56.00
24744;DHT22;12844;52.110;5.548;2023-05-10T13:35:22;20.90;56.00
24744;DHT22;12844;52.110;5.548;2023-05-10T13:37:48;20.90;56.00
24744;DHT22;12844;52.110;5.548;2023-05-10T13:40:13;20.90;56.10
24744;DHT22;12844;52.110;5.548;2023-05-10T13:42:40;20.90;56.20
24744;DHT22;12844;52.110;5.548;2023-05-10T13:45:06;20.90;56.20
24744;DHT22;12844;52.110;5.548;2023-05-10T13:47:32;20.80;56.20
24744;DHT22;12844;52.110;5.548;2023-05-10T13:49:57;20.80;56.20
24744;DHT22;12844;52.110;5.548;2023-05-10T13:52:23;20.80;56.30
24744;DHT22;12844;52.110;5.548;2023-05-10T13:54:49;20.80;56.40
24744;DHT22;12844;52.110;5.548;2023-05-10T13:57:14;20.80;56.40
24744;DHT22;12844;52.110;5.548;2023-05-10T13:59:42;20.80;56.40
24744;DHT22;12844;52.110;5.548;2023-05-10T14:02:07;20.80;56.40
24744;DHT22;12844;52.110;5.548;2023-05-10T14:04:33;20.80;56.40
24744;DHT22;12844;52.110;5.548;2023-05-10T14:07:00;20.70;56.40
24744;DHT22;12844;52.110;5.548;2023-05-10T14:09:26;20.70;56.50
24744;DHT22;12844;52.110;5.548;2023-05-10T14:11:51;20.70;56.50
24744;DHT22;12844;52.110;5.548;2023-05-10T14:14:17;20.60;56.50
24744;DHT22;12844;52.110;5.548;2023-05-10T14:16:44;20.60;56.60
24744;DHT22;12844;52.110;5.548;2023-05-10T14:19:10;20.70;56.60
24744;DHT22;12844;52.110;5.548;2023-05-10T14:21:35;20.60;56.60
24744;DHT22;12844;52.110;5.548;2023-05-10T14:24:01;20.60;56.70
24744;DHT22;12844;52.110;5.548;2023-05-10T14:26:27;20.60;56.60
24744;DHT22;12844;52.110;5.548;2023-05-10T14:28:53;20.60;56.60
24744;DHT22;12844;52.110;5.548;2023-05-10T14:31:18;20.60;56.70
24744;DHT22;12844;52.110;5.548;2023-05-10T14:33:46;20.60;56.70
24744;DHT22;12844;52.110;5.548;2023-05-10T14:36:11;20.60;56.70
24744;DHT22;12844;52.110;5.548;2023-05-10T14:38:37;20.60;56.70
24744;DHT22;12844;52.110;5.548;2023-05-10T14:41:03;20.60;56.70
24744;DHT22;12844;52.110;5.548;2023-05-10T14:43:28;20.50;56.70
24744;DHT22;12844;52.110;5.548;2023-05-10T14:45:54;20.60;56.70
24744;DHT22;12844;52.110;5.548;2023-05-10T14:48:19;20.50;56.70
24744;DHT22;12844;52.110;5.548;2023-05-10T14:50:46;20.60;56.70
24744;DHT22;12844;52.110;5.548;2023-05-10T14:53:12;20.50;56.70
24744;DHT22;12844;52.110;5.548;2023-05-10T14:55:37;20.50;56.70
24744;DHT22;12844;52.110;5.548;2023-05-10T14:58:04;20.50;56.70
24744;DHT22;12844;52.110;5.548;2023-05-10T15:00:30;20.50;56.70
24744;DHT22;12844;52.110;5.548;2023-05-10T15:02:55;20.50;56.70
24744;DHT22;12844;52.110;5.548;2023-05-10T15:05:21;20.50;56.70
24744;DHT22;12844;52.110;5.548;2023-05-10T15:07:47;20.50;56.70
24744;DHT22;12844;52.110;5.548;2023-05-10T15:10:13;20.50;56.70
24744;DHT22;12844;52.110;5.548;2023-05-10T15:12:39;20.50;56.70
24744;DHT22;12844;52.110;5.548;2023-05-10T15:15:05;20.50;56.70
24744;DHT22;12844;52.110;5.548;2023-05-10T15:17:31;20.50;56.70
24744;DHT22;12844;52.110;5.548;2023-05-10T15:19:57;20.50;56.70
24744;DHT22;12844;52.110;5.548;2023-05-10T15:22:22;20.50;56.70
24744;DHT22;12844;52.110;5.548;2023-05-10T15:24:48;20.50;56.70
24744;DHT22;12844;52.110;5.548;2023-05-10T15:27:13;20.50;56.60
24744;DHT22;12844;52.110;5.548;2023-05-10T15:29:39;20.50;56.60
24744;DHT22;12844;52.110;5.548;2023-05-10T15:32:04;20.50;56.60
24744;DHT22;12844;52.110;5.548;2023-05-10T15:34:30;20.50;56.60
24744;DHT22;12844;52.110;5.548;2023-05-10T15:36:56;20.60;56.70
24744;DHT22;12844;52.110;5.548;2023-05-10T15:39:22;20.60;56.70
24744;DHT22;12844;52.110;5.548;2023-05-10T15:41:47;20.60;56.70
24744;DHT22;12844;52.110;5.548;2023-05-10T15:44:13;20.60;56.60
24744;DHT22;12844;52.110;5.548;2023-05-10T15:46:38;20.60;56.60
24744;DHT22;12844;52.110;5.548;2023-05-10T15:49:04;20.60;56.60
24744;DHT22;12844;52.110;5.548;2023-05-10T15:51:31;20.60;56.50
24744;DHT22;12844;52.110;5.548;2023-05-10T15:53:58;20.60;56.50
24744;DHT22;12844;52.110;5.548;2023-05-10T15:56:23;20.60;56.50
24744;DHT22;12844;52.110;5.548;2023-05-10T15:58:49;20.60;56.40
24744;DHT22;12844;52.110;5.548;2023-05-10T16:01:14;20.60;56.40
24744;DHT22;12844;52.110;5.548;2023-05-10T16:03:40;20.70;56.50
24744;DHT22;12844;52.110;5.548;2023-05-10T16:06:07;20.70;56.50
24744;DHT22;12844;52.110;5.548;2023-05-10T16:08:32;20.70;56.50
24744;DHT22;12844;52.110;5.548;2023-05-10T16:10:59;20.70;56.40
24744;DHT22;12844;52.110;5.548;2023-05-10T16:13:25;20.70;56.40
24744;DHT22;12844;52.110;5.548;2023-05-10T16:15:51;20.70;56.40
24744;DHT22;12844;52.110;5.548;2023-05-10T16:18:16;20.70;56.40
24744;DHT22;12844;52.110;5.548;2023-05-10T16:20:43;20.70;56.40
24744;DHT22;12844;52.110;5.548;2023-05-10T16:23:08;20.70;56.40
24744;DHT22;12844;52.110;5.548;2023-05-10T16:25:34;20.70;56.30
24744;DHT22;12844;52.110;5.548;2023-05-10T16:28:00;20.80;56.40
24744;DHT22;12844;52.110;5.548;2023-05-10T16:30:25;20.70;56.30
24744;DHT22;12844;52.110;5.548;2023-05-10T16:32:54;20.70;56.30
24744;DHT22;12844;52.110;5.548;2023-05-10T16:35:19;20.70;56.30
24744;DHT22;12844;52.110;5.548;2023-05-10T16:37:45;20.70;56.30
24744;DHT22;12844;52.110;5.548;2023-05-10T16:40:11;20.70;56.40
24744;DHT22;12844;52.110;5.548;2023-05-10T16:42:36;20.70;56.40
24744;DHT22;12844;52.110;5.548;2023-05-10T16:45:02;20.70;56.40
24744;DHT22;12844;52.110;5.548;2023-05-10T16:47:39;20.70;56.40
24744;DHT22;12844;52.110;5.548;2023-05-10T16:50:06;20.70;56.30
24744;DHT22;12844;52.110;5.548;2023-05-10T16:52:33;20.70;56.40
24744;DHT22;12844;52.110;5.548;2023-05-10T16:54:59;20.70;56.40
24744;DHT22;12844;52.110;5.548;2023-05-10T16:57:26;20.70;56.50
24744;DHT22;12844;52.110;5.548;2023-05-10T16:59:51;20.70;56.50
24744;DHT22;12844;52.110;5.548;2023-05-10T17:02:21;20.60;56.40
24744;DHT22;12844;52.110;5.548;2023-05-10T17:04:46;20.70;56.50
24744;DHT22;12844;52.110;5.548;2023-05-10T17:07:12;20.70;56.50
24744;DHT22;12844;52.110;5.548;2023-05-10T17:09:40;20.60;56.50
24744;DHT22;12844;52.110;5.548;2023-05-10T17:12:06;20.60;56.50
24744;DHT22;12844;52.110;5.548;2023-05-10T17:14:31;20.60;56.50
24744;DHT22;12844;52.110;5.548;2023-05-10T17:16:57;20.60;56.50
24744;DHT22;12844;52.110;5.548;2023-05-10T17:19:22;20.60;56.50
24744;DHT22;12844;52.110;5.548;2023-05-10T17:21:48;20.60;56.50
24744;DHT22;12844;52.110;5.548;2023-05-10T17:24:14;20.60;56.50
24744;DHT22;12844;52.110;5.548;2023-05-10T17:26:40;20.60;56.40
24744;DHT22;12844;52.110;5.548;2023-05-10T17:29:05;20.60;56.50
24744;DHT22;12844;52.110;5.548;2023-05-10T17:31:31;20.60;56.50
24744;DHT22;12844;52.110;5.548;2023-05-10T17:33:57;20.60;56.50
24744;DHT22;12844;52.110;5.548;2023-05-10T17:36:23;20.60;56.50
24744;DHT22;12844;52.110;5.548;2023-05-10T17:38:48;20.60;56.50
24744;DHT22;12844;52.110;5.548;2023-05-10T17:41:15;20.60;56.50
24744;DHT22;12844;52.110;5.548;2023-05-10T17:43:41;20.60;56.50
24744;DHT22;12844;52.110;5.548;2023-05-10T17:46:06;20.60;56.50
24744;DHT22;12844;52.110;5.548;2023-05-10T17:48:32;20.60;56.60
24744;DHT22;12844;52.110;5.548;2023-05-10T17:50:58;20.60;56.60
24744;DHT22;12844;52.110;5.548;2023-05-10T17:53:23;20.50;56.60
24744;DHT22;12844;52.110;5.548;2023-05-10T17:55:50;20.60;56.70
24744;DHT22;12844;52.110;5.548;2023-05-10T17:58:16;20.60;56.60
24744;DHT22;12844;52.110;5.548;2023-05-10T18:00:41;20.60;56.70
24744;DHT22;12844;52.110;5.548;2023-05-10T18:03:07;20.50;56.60
24744;DHT22;12844;52.110;5.548;2023-05-10T18:05:37;20.60;56.70
24744;DHT22;12844;52.110;5.548;2023-05-10T18:08:03;20.50;56.60
24744;DHT22;12844;52.110;5.548;2023-05-10T18:10:29;20.50;56.60
24744;DHT22;12844;52.110;5.548;2023-05-10T18:12:54;20.50;56.60
24744;DHT22;12844;52.110;5.548;2023-05-10T18:15:21;20.50;56.70
24744;DHT22;12844;52.110;5.548;2023-05-10T18:17:48;20.50;56.70
24744;DHT22;12844;52.110;5.548;2023-05-10T18:20:13;20.50;56.70
24744;DHT22;12844;52.110;5.548;2023-05-10T18:22:39;20.50;56.80
24744;DHT22;12844;52.110;5.548;2023-05-10T18:25:05;20.50;56.80
24744;DHT22;12844;52.110;5.548;2023-05-10T18:27:31;20.50;56.70
24744;DHT22;12844;52.110;5.548;2023-05-10T18:29:56;20.50;56.80
24744;DHT22;12844;52.110;5.548;2023-05-10T18:32:22;20.50;56.80
24744;DHT22;12844;52.110;5.548;2023-05-10T18:34:48;20.40;56.70
24744;DHT22;12844;52.110;5.548;2023-05-10T18:37:13;20.40;56.80
24744;DHT22;12844;52.110;5.548;2023-05-10T18:39:40;20.40;56.80
24744;DHT22;12844;52.110;5.548;2023-05-10T18:42:05;20.50;56.80
24744;DHT22;12844;52.110;5.548;2023-05-10T18:44:31;20.50;56.80
24744;DHT22;12844;52.110;5.548;2023-05-10T18:46:57;20.40;56.80
24744;DHT22;12844;52.110;5.548;2023-05-10T18:49:24;20.40;56.80
24744;DHT22;12844;52.110;5.548;2023-05-10T18:51:49;20.40;56.80
24744;DHT22;12844;52.110;5.548;2023-05-10T18:54:15;20.40;56.90
24744;DHT22;12844;52.110;5.548;2023-05-10T18:56:41;20.40;56.80
24744;DHT22;12844;52.110;5.548;2023-05-10T18:59:10;20.40;56.90
24744;DHT22;12844;52.110;5.548;2023-05-10T19:01:35;20.40;56.90
24744;DHT22;12844;52.110;5.548;2023-05-10T19:04:01;20.40;56.80
24744;DHT22;12844;52.110;5.548;2023-05-10T19:06:26;20.40;56.80
24744;DHT22;12844;52.110;5.548;2023-05-10T19:08:52;20.40;56.90
24744;DHT22;12844;52.110;5.548;2023-05-10T19:11:18;20.40;56.90
24744;DHT22;12844;52.110;5.548;2023-05-10T19:13:44;20.40;56.80
24744;DHT22;12844;52.110;5.548;2023-05-10T19:16:12;20.40;56.80
24744;DHT22;12844;52.110;5.548;2023-05-10T19:18:38;20.40;56.90
24744;DHT22;12844;52.110;5.548;2023-05-10T19:21:04;20.40;56.80
24744;DHT22;12844;52.110;5.548;2023-05-10T19:23:32;20.40;56.80
24744;DHT22;12844;52.110;5.548;2023-05-10T19:25:58;20.40;56.80
24744;DHT22;12844;52.110;5.548;2023-05-10T19:28:24;20.40;56.80
24744;DHT22;12844;52.110;5.548;2023-05-10T19:30:50;20.40;56.90
24744;DHT22;12844;52.110;5.548;2023-05-10T19:33:17;20.40;56.80
24744;DHT22;12844;52.110;5.548;2023-05-10T19:35:42;20.40;56.80
24744;DHT22;12844;52.110;5.548;2023-05-10T19:38:08;20.40;56.80
24744;DHT22;12844;52.110;5.548;2023-05-10T19:40:34;20.40;56.80
24744;DHT22;12844;52.110;5.548;2023-05-10T19:43:00;20.30;56.80
24744;DHT22;12844;52.110;5.548;2023-05-10T19:45:26;20.30;56.90
24744;DHT22;12844;52.110;5.548;2023-05-10T19:47:52;20.30;56.80
24744;DHT22;12844;52.110;5.548;2023-05-10T19:50:17;20.30;56.90
24744;DHT22;12844;52.110;5.548;2023-05-10T19:52:43;20.40;56.90
24744;DHT22;12844;52.110;5.548;2023-05-10T19:55:09;20.30;56.90
24744;DHT22;12844;52.110;5.548;2023-05-10T19:57:35;20.30;56.80
24744;DHT22;12844;52.110;5.548;2023-05-10T20:00:01;20.30;56.90
24744;DHT22;12844;52.110;5.548;2023-05-10T20:02:28;20.30;56.90
24744;DHT22;12844;52.110;5.548;2023-05-10T20:04:54;20.30;56.90
24744;DHT22;12844;52.110;5.548;2023-05-10T20:07:19;20.30;56.90
24744;DHT22;12844;52.110;5.548;2023-05-10T20:09:45;20.30;57.50
24744;DHT22;12844;52.110;5.548;2023-05-10T20:12:10;20.30;56.90
24744;DHT22;12844;52.110;5.548;2023-05-10T20:14:36;20.30;56.90
24744;DHT22;12844;52.110;5.548;2023-05-10T20:17:02;20.30;56.90
24744;DHT22;12844;52.110;5.548;2023-05-10T20:19:27;20.30;56.90
24744;DHT22;12844;52.110;5.548;2023-05-10T20:21:53;20.30;56.90
24744;DHT22;12844;52.110;5.548;2023-05-10T20:24:22;20.30;56.90
24744;DHT22;12844;52.110;5.548;2023-05-10T20:26:47;20.30;56.90
24744;DHT22;12844;52.110;5.548;2023-05-10T20:29:12;20.30;56.90
24744;DHT22;12844;52.110;5.548;2023-05-10T20:31:38;20.30;56.90
24744;DHT22;12844;52.110;5.548;2023-05-10T20:34:04;20.30;56.90
24744;DHT22;12844;52.110;5.548;2023-05-10T20:36:29;20.30;56.90
24744;DHT22;12844;52.110;5.548;2023-05-10T20:38:55;20.30;56.90
24744;DHT22;12844;52.110;5.548;2023-05-10T20:41:21;20.30;56.90
24744;DHT22;12844;52.110;5.548;2023-05-10T20:43:47;20.30;56.90
24744;DHT22;12844;52.110;5.548;2023-05-10T20:46:12;20.30;56.90
24744;DHT22;12844;52.110;5.548;2023-05-10T20:48:38;20.30;56.90
24744;DHT22;12844;52.110;5.548;2023-05-10T20:51:03;20.30;56.90
24744;DHT22;12844;52.110;5.548;2023-05-10T20:53:29;20.30;56.90
24744;DHT22;12844;52.110;5.548;2023-05-10T20:55:54;20.30;56.90
24744;DHT22;12844;52.110;5.548;2023-05-10T20:58:20;20.30;56.90
24744;DHT22;12844;52.110;5.548;2023-05-10T21:00:46;20.30;56.90
24744;DHT22;12844;52.110;5.548;2023-05-10T21:03:13;20.20;56.80
24744;DHT22;12844;52.110;5.548;2023-05-10T21:05:38;20.30;56.90
24744;DHT22;12844;52.110;5.548;2023-05-10T21:08:04;20.30;56.90
24744;DHT22;12844;52.110;5.548;2023-05-10T21:10:30;20.30;56.90
24744;DHT22;12844;52.110;5.548;2023-05-10T21:12:55;20.30;56.90
24744;DHT22;12844;52.110;5.548;2023-05-10T21:15:21;20.30;56.90
24744;DHT22;12844;52.110;5.548;2023-05-10T21:17:48;20.30;56.90
24744;DHT22;12844;52.110;5.548;2023-05-10T21:20:14;20.30;56.90
24744;DHT22;12844;52.110;5.548;2023-05-10T21:22:39;20.20;56.80
24744;DHT22;12844;52.110;5.548;2023-05-10T21:25:05;20.20;56.80
24744;DHT22;12844;52.110;5.548;2023-05-10T21:27:31;20.20;56.90
24744;DHT22;12844;52.110;5.548;2023-05-10T21:29:56;20.20;56.90
24744;DHT22;12844;52.110;5.548;2023-05-10T21:32:22;20.20;56.80